createdAt,value
2022-12-11T00:00:08.093Z,15.93
2022-12-11T00:02:35.147Z,13.25
2022-12-11T00:05:01.831Z,15.95
2022-12-11T00:07:28.473Z,15.15
2022-12-11T00:09:54.945Z,14.75
2022-12-11T00:12:21.763Z,15.45
2022-12-11T00:14:48.374Z,14.55
2022-12-11T00:17:14.948Z,16.48
2022-12-11T00:19:41.621Z,15.35
2022-12-11T00:22:08.258Z,16.42
2022-12-11T00:24:34.769Z,12.55
2022-12-11T00:27:01.426Z,15.13
2022-12-11T00:29:28.114Z,15.35
2022-12-11T00:31:54.668Z,15.85
2022-12-11T00:34:21.401Z,15.80
2022-12-11T00:36:48.112Z,15.88
2022-12-11T00:39:14.636Z,14.10
2022-12-11T00:41:41.282Z,15.57
2022-12-11T00:44:07.865Z,17.45
2022-12-11T00:46:34.377Z,18.00
2022-12-11T00:49:00.984Z,18.05
2022-12-11T00:51:27.617Z,15.07
2022-12-11T00:53:54.112Z,13.68
2022-12-11T00:56:22.406Z,17.95
2022-12-11T00:58:49.809Z,14.65
2022-12-11T01:01:20.003Z,15.45
2022-12-11T01:03:47.724Z,14.15
2022-12-11T01:06:19.377Z,14.73
2022-12-11T01:08:47.101Z,14.80
2022-12-11T01:11:16.020Z,12.93
2022-12-11T01:13:43.224Z,15.45
2022-12-11T01:16:14.928Z,15.55
2022-12-11T01:18:42.366Z,14.60
2022-12-11T01:21:11.935Z,16.90
2022-12-11T01:23:39.282Z,15.77
2022-12-11T01:26:10.686Z,17.27
2022-12-11T01:28:37.718Z,13.85
2022-12-11T01:31:15.422Z,14.27
2022-12-11T01:33:42.310Z,15.98
2022-12-11T01:36:10.662Z,15.93
2022-12-11T01:38:37.321Z,15.63
2022-12-11T01:41:04.289Z,13.65
2022-12-11T01:43:31.163Z,16.63
2022-12-11T01:45:57.921Z,16.05
2022-12-11T01:48:28.699Z,15.20
2022-12-11T01:51:05.964Z,13.50
2022-12-11T01:53:40.392Z,14.23
2022-12-11T01:56:08.486Z,13.13
2022-12-11T01:58:41.031Z,14.20
2022-12-11T02:03:42.883Z,14.95
2022-12-11T02:06:30.438Z,14.02
2022-12-11T02:08:57.215Z,13.10
2022-12-11T02:11:35.482Z,13.38
2022-12-11T02:14:31.384Z,15.27
2022-12-11T02:17:14.092Z,13.80
2022-12-11T02:19:57.692Z,11.27
2022-12-11T02:23:01.461Z,14.90
2022-12-11T02:25:50.621Z,11.18
2022-12-11T02:28:41.913Z,15.07
2022-12-11T02:31:50.450Z,16.15
2022-12-11T02:34:28.745Z,13.43
2022-12-11T02:37:02.185Z,14.93
2022-12-11T02:39:31.308Z,13.88
2022-12-11T02:41:59.064Z,14.65
2022-12-11T02:44:30.459Z,15.30
2022-12-11T02:46:58.506Z,15.00
2022-12-11T02:49:27.820Z,13.65
2022-12-11T02:51:56.559Z,13.43
2022-12-11T02:54:29.049Z,13.73
2022-12-11T02:57:41.974Z,13.90
2022-12-11T03:00:09.112Z,15.63
2022-12-11T03:02:36.699Z,13.25
2022-12-11T03:05:04.985Z,15.27
2022-12-11T03:07:38.288Z,13.68
2022-12-11T03:10:07.961Z,13.93
2022-12-11T03:12:37.014Z,14.57
2022-12-11T03:15:06.741Z,12.75
2022-12-11T03:18:00.571Z,12.80
2022-12-11T03:20:43.240Z,12.90
2022-12-11T03:23:22.791Z,13.38
2022-12-11T03:25:55.417Z,12.40
2022-12-11T03:28:42.065Z,13.18
2022-12-11T03:31:13.599Z,12.25
2022-12-11T03:36:14.619Z,11.68
2022-12-11T03:38:49.216Z,15.25
2022-12-11T03:41:18.571Z,11.57
2022-12-11T03:43:45.876Z,12.77
2022-12-11T03:46:15.124Z,14.77
2022-12-11T03:48:44.771Z,14.43
2022-12-11T03:51:11.341Z,13.73
2022-12-11T03:53:39.388Z,11.73
2022-12-11T03:56:08.603Z,13.48
2022-12-11T03:58:35.496Z,13.55
2022-12-11T04:01:02.103Z,12.68
2022-12-11T04:03:28.747Z,13.25
2022-12-11T04:05:55.832Z,12.48
2022-12-11T04:08:23.652Z,12.38
2022-12-11T04:11:11.139Z,12.38
2022-12-11T04:13:38.777Z,10.10
2022-12-11T04:16:05.679Z,13.38
2022-12-11T04:18:50.934Z,13.25
2022-12-11T04:21:39.497Z,15.82
2022-12-11T04:24:16.043Z,12.75
2022-12-11T04:26:44.452Z,10.18
2022-12-11T04:29:11.150Z,13.52
2022-12-11T04:31:37.844Z,11.93
2022-12-11T04:34:04.624Z,13.88
2022-12-11T04:36:31.115Z,13.15
2022-12-11T04:38:57.808Z,15.50
2022-12-11T04:41:24.341Z,14.07
2022-12-11T04:43:50.924Z,12.07
2022-12-11T04:46:20.604Z,12.32
2022-12-11T04:48:52.410Z,12.57
2022-12-11T04:51:22.277Z,11.90
2022-12-11T04:53:48.972Z,12.65
2022-12-11T04:56:16.503Z,11.02
2022-12-11T04:58:44.324Z,16.08
2022-12-11T05:01:12.666Z,14.85
2022-12-11T05:03:39.352Z,14.50
2022-12-11T05:06:06.605Z,14.23
2022-12-11T05:08:34.955Z,14.00
2022-12-11T05:11:04.025Z,11.82
2022-12-11T05:13:31.869Z,14.00
2022-12-11T05:15:58.975Z,12.55
2022-12-11T05:18:25.841Z,14.50
2022-12-11T05:21:04.420Z,13.35
2022-12-11T05:23:31.570Z,12.45
2022-12-11T05:26:01.857Z,13.00
2022-12-11T05:28:30.367Z,12.93
2022-12-11T05:31:05.297Z,15.93
2022-12-11T05:33:32.245Z,13.23
2022-12-11T05:35:58.888Z,15.60
2022-12-11T05:38:25.930Z,13.20
2022-12-11T05:41:00.015Z,16.08
2022-12-11T05:43:28.233Z,13.43
2022-12-11T05:45:55.108Z,14.40
2022-12-11T05:48:22.154Z,15.45
2022-12-11T05:51:02.147Z,14.50
2022-12-11T05:53:29.252Z,13.52
2022-12-11T05:56:02.317Z,12.93
2022-12-11T05:58:28.873Z,15.50
2022-12-11T06:00:55.615Z,14.00
2022-12-11T06:03:22.149Z,13.82
2022-12-11T06:05:49.356Z,14.43
2022-12-11T06:08:16.081Z,14.13
2022-12-11T06:10:49.936Z,14.18
2022-12-11T06:13:17.310Z,16.77
2022-12-11T06:15:43.855Z,14.40
2022-12-11T06:18:10.728Z,14.98
2022-12-11T06:20:37.459Z,12.85
2022-12-11T06:23:04.096Z,15.80
2022-12-11T06:25:30.818Z,14.48
2022-12-11T06:27:57.837Z,13.88
2022-12-11T06:30:38.684Z,13.55
2022-12-11T06:33:06.571Z,16.67
2022-12-11T06:35:36.285Z,14.07
2022-12-11T06:38:08.195Z,16.42
2022-12-11T06:40:34.680Z,11.95
2022-12-11T06:43:01.164Z,11.55
2022-12-11T06:45:27.859Z,14.85
2022-12-11T06:47:54.407Z,14.82
2022-12-11T06:50:20.888Z,11.70
2022-12-11T06:52:47.500Z,17.02
2022-12-11T06:55:14.211Z,15.90
2022-12-11T06:57:40.724Z,16.13
2022-12-11T07:00:07.805Z,14.15
2022-12-11T07:02:34.423Z,14.52
2022-12-11T07:05:00.998Z,14.52
2022-12-11T07:07:27.647Z,18.83
2022-12-11T07:09:54.208Z,13.40
2022-12-11T07:12:21.160Z,16.42
2022-12-11T07:14:47.932Z,15.07
2022-12-11T07:17:14.442Z,20.60
2022-12-11T07:19:41.220Z,18.92
2022-12-11T07:22:08.150Z,16.10
2022-12-11T07:24:34.679Z,17.27
2022-12-11T07:27:01.189Z,15.02
2022-12-11T07:29:27.809Z,16.17
2022-12-11T07:31:54.479Z,18.63
2022-12-11T07:34:21.057Z,14.43
2022-12-11T07:36:47.855Z,14.95
2022-12-11T07:39:14.365Z,14.55
2022-12-11T07:41:40.920Z,14.20
2022-12-11T07:44:07.533Z,14.75
2022-12-11T07:46:34.512Z,19.10
2022-12-11T07:49:01.662Z,15.95
2022-12-11T07:51:31.458Z,14.85
2022-12-11T07:54:00.508Z,16.65
2022-12-11T07:56:28.545Z,16.15
2022-12-11T07:58:55.434Z,14.02
2022-12-11T08:01:26.130Z,19.35
2022-12-11T08:03:53.901Z,18.00
2022-12-11T08:06:24.833Z,15.10
2022-12-11T08:08:51.329Z,18.45
2022-12-11T08:11:17.864Z,15.30
2022-12-11T08:13:44.677Z,17.85
2022-12-11T08:16:13.552Z,15.82
2022-12-11T08:18:41.748Z,16.92
2022-12-11T08:21:10.353Z,17.15
2022-12-11T08:23:37.201Z,17.27
2022-12-11T08:26:06.012Z,16.80
2022-12-11T08:28:33.246Z,17.58
2022-12-11T08:31:00.223Z,18.90
2022-12-11T08:33:27.179Z,18.15
2022-12-11T08:35:53.793Z,18.80
2022-12-11T08:38:25.154Z,21.05
2022-12-11T08:40:52.290Z,20.58
2022-12-11T08:43:18.913Z,16.38
2022-12-11T08:45:46.949Z,21.52
2022-12-11T08:48:13.639Z,16.83
2022-12-11T08:50:40.223Z,19.00
2022-12-11T08:53:06.774Z,15.60
2022-12-11T08:55:33.940Z,20.13
2022-12-11T08:58:00.562Z,16.50
2022-12-11T09:00:27.049Z,21.20
2022-12-11T09:02:53.705Z,16.60
2022-12-11T09:05:20.316Z,20.10
2022-12-11T09:07:46.862Z,18.15
2022-12-11T09:10:13.524Z,16.02
2022-12-11T09:12:40.239Z,19.73
2022-12-11T09:15:07.166Z,16.67
2022-12-11T09:17:34.648Z,13.35
2022-12-11T09:20:01.565Z,17.73
2022-12-11T09:22:28.586Z,18.35
2022-12-11T09:24:55.157Z,17.67
2022-12-11T09:27:22.392Z,14.75
2022-12-11T09:29:49.375Z,19.45
2022-12-11T09:32:15.976Z,15.93
2022-12-11T09:34:42.632Z,16.77
2022-12-11T09:37:09.311Z,18.35
2022-12-11T09:39:35.978Z,16.15
2022-12-11T09:42:18.744Z,19.75
2022-12-11T09:44:58.444Z,16.80
2022-12-11T09:47:40.550Z,21.90
2022-12-11T09:50:10.267Z,20.60
2022-12-11T09:53:02.930Z,19.58
2022-12-11T09:56:03.912Z,16.75
2022-12-11T09:58:59.907Z,21.50
2022-12-11T10:01:30.308Z,17.75
2022-12-11T10:04:26.409Z,16.92
2022-12-11T10:06:59.710Z,18.20
2022-12-11T10:09:33.520Z,21.13
2022-12-11T10:12:11.875Z,19.02
2022-12-11T10:15:22.597Z,20.13
2022-12-11T10:17:50.523Z,17.65
2022-12-11T10:20:27.084Z,21.27
2022-12-11T10:22:54.918Z,17.92
2022-12-11T10:25:29.345Z,20.80
2022-12-11T10:27:56.262Z,21.60
2022-12-11T10:30:29.324Z,21.30
2022-12-11T10:33:22.663Z,18.42
2022-12-11T10:35:53.198Z,20.50
2022-12-11T10:38:31.851Z,22.25
2022-12-11T10:41:01.739Z,20.55
2022-12-11T10:43:55.716Z,21.77
2022-12-11T10:46:25.493Z,22.60
2022-12-11T10:49:22.619Z,22.40
2022-12-11T10:51:49.424Z,21.58
2022-12-11T10:54:29.286Z,19.80
2022-12-11T10:56:56.598Z,19.35
2022-12-11T10:59:30.172Z,16.95
2022-12-11T11:01:57.954Z,20.08
2022-12-11T11:04:31.526Z,21.45
2022-12-11T11:07:13.351Z,20.02
2022-12-11T11:09:40.484Z,22.48
2022-12-11T11:12:27.885Z,23.10
2022-12-11T11:15:07.745Z,20.48
2022-12-11T11:17:52.935Z,20.75
2022-12-11T11:20:26.782Z,18.42
2022-12-11T11:22:58.837Z,19.55
2022-12-11T11:25:28.789Z,19.23
2022-12-11T11:27:58.575Z,21.73
2022-12-11T11:30:35.785Z,22.73
2022-12-11T11:33:11.058Z,20.50
2022-12-11T11:35:39.108Z,22.13
2022-12-11T11:38:19.980Z,20.92
2022-12-11T11:41:20.173Z,21.30
2022-12-11T11:43:52.482Z,21.58
2022-12-11T11:46:30.782Z,19.33
2022-12-11T11:49:10.656Z,21.27
2022-12-11T11:51:44.700Z,18.67
2022-12-11T11:54:37.378Z,20.20
2022-12-11T11:57:15.562Z,17.45
2022-12-11T11:59:48.103Z,18.23
2022-12-11T12:02:17.626Z,20.88
2022-12-11T12:04:45.889Z,19.58
2022-12-11T12:07:45.626Z,21.10
2022-12-11T12:10:53.752Z,20.63
2022-12-11T12:13:49.194Z,19.00
2022-12-11T12:16:52.703Z,16.75
2022-12-11T12:19:36.030Z,18.88
2022-12-11T12:22:30.543Z,22.13
2022-12-11T12:25:26.560Z,18.73
2022-12-11T12:28:30.827Z,20.02
2022-12-11T12:31:03.774Z,18.92
2022-12-11T12:33:49.397Z,17.95
2022-12-11T12:36:45.375Z,20.65
2022-12-11T12:39:29.624Z,19.58
2022-12-11T12:42:08.099Z,18.40
2022-12-11T12:45:13.616Z,21.30
2022-12-11T12:47:43.016Z,24.02
2022-12-11T12:50:20.215Z,19.13
2022-12-11T12:52:48.955Z,19.20
2022-12-11T12:55:23.036Z,23.52
2022-12-11T12:57:52.511Z,23.00
2022-12-11T13:00:34.113Z,19.60
2022-12-11T13:03:30.383Z,24.75
2022-12-11T13:06:15.267Z,26.75
2022-12-11T13:08:50.859Z,22.45
2022-12-11T13:11:20.775Z,22.65
2022-12-11T13:14:07.844Z,21.23
2022-12-11T13:16:37.889Z,27.50
2022-12-11T13:19:17.602Z,22.20
2022-12-11T13:21:56.218Z,23.42
2022-12-11T13:24:23.567Z,27.15
2022-12-11T13:26:50.755Z,24.70
2022-12-11T13:29:40.361Z,27.95
2022-12-11T13:32:09.834Z,23.80
2022-12-11T13:34:39.355Z,23.98
2022-12-11T13:37:07.497Z,22.52
2022-12-11T13:39:39.748Z,27.17
2022-12-11T13:42:19.740Z,27.63
2022-12-11T13:44:48.356Z,25.48
2022-12-11T13:47:18.774Z,27.02
2022-12-11T13:49:49.554Z,25.98
2022-12-11T13:52:18.859Z,21.95
2022-12-11T13:54:54.437Z,26.63
2022-12-11T13:57:25.853Z,27.83
2022-12-11T13:59:57.265Z,26.58
2022-12-11T14:02:32.519Z,26.80
2022-12-11T14:05:05.203Z,30.60
2022-12-11T14:07:35.271Z,31.25
2022-12-11T14:10:11.147Z,26.25
2022-12-11T14:12:37.899Z,30.10
2022-12-11T14:15:05.401Z,27.10
2022-12-11T14:17:34.271Z,26.40
2022-12-11T14:20:07.320Z,27.92
2022-12-11T14:22:34.126Z,29.52
2022-12-11T14:25:16.751Z,28.42
2022-12-11T14:27:51.547Z,28.45
2022-12-11T14:30:28.118Z,30.08
2022-12-11T14:32:59.079Z,24.65
2022-12-11T14:35:39.268Z,29.50
2022-12-11T14:38:15.683Z,29.48
2022-12-11T14:40:45.739Z,30.13
2022-12-11T14:43:19.822Z,33.25
2022-12-11T14:45:50.274Z,28.65
2022-12-11T14:48:22.289Z,31.73
2022-12-11T14:50:53.569Z,30.13
2022-12-11T14:53:29.814Z,24.65
2022-12-11T14:56:01.437Z,28.65
2022-12-11T15:01:07.619Z,27.85
2022-12-11T15:03:39.161Z,31.20
2022-12-11T15:06:28.754Z,26.50
2022-12-11T15:08:55.493Z,30.65
2022-12-11T15:11:24.054Z,28.40
2022-12-11T15:14:03.195Z,27.25
2022-12-11T15:16:34.592Z,31.48
2022-12-11T15:19:02.038Z,29.75
2022-12-11T15:21:31.053Z,33.80
2022-12-11T15:24:00.013Z,30.58
2022-12-11T15:26:34.484Z,38.50
2022-12-11T15:29:03.814Z,31.48
2022-12-11T15:31:32.722Z,30.45
2022-12-11T15:33:59.654Z,36.58
2022-12-11T15:36:35.509Z,27.17
2022-12-11T15:39:03.520Z,28.45
2022-12-11T15:41:33.402Z,28.90
2022-12-11T15:44:02.105Z,33.60
2022-12-11T15:46:29.427Z,36.33
2022-12-11T15:48:57.453Z,36.10
2022-12-11T15:51:25.324Z,31.08
2022-12-11T15:53:52.071Z,36.53
2022-12-11T15:56:18.734Z,34.85
2022-12-11T15:58:47.531Z,29.52
2022-12-11T16:01:14.414Z,32.75
2022-12-11T16:03:40.929Z,30.95
2022-12-11T16:06:12.119Z,38.63
2022-12-11T16:08:38.747Z,26.33
2022-12-11T16:11:05.415Z,29.60
2022-12-11T16:13:31.960Z,32.10
2022-12-11T16:15:58.758Z,36.05
2022-12-11T16:18:26.514Z,36.13
2022-12-11T16:20:53.222Z,34.30
2022-12-11T16:23:20.525Z,34.95
2022-12-11T16:25:47.140Z,31.83
2022-12-11T16:28:16.091Z,36.70
2022-12-11T16:30:43.650Z,27.85
2022-12-11T16:33:13.255Z,34.03
2022-12-11T16:35:41.398Z,34.65
2022-12-11T16:38:08.347Z,36.55
2022-12-11T16:40:34.896Z,33.53
2022-12-11T16:43:02.744Z,32.47
2022-12-11T16:45:29.432Z,31.90
2022-12-11T16:47:55.992Z,28.40
2022-12-11T16:50:23.632Z,33.30
2022-12-11T16:52:50.908Z,34.92
2022-12-11T16:55:21.143Z,32.20
2022-12-11T16:57:47.863Z,33.13
2022-12-11T17:00:15.551Z,36.72
2022-12-11T17:02:42.254Z,34.95
2022-12-11T17:05:09.252Z,34.22
2022-12-11T17:07:36.007Z,32.35
2022-12-11T17:10:03.289Z,32.83
2022-12-11T17:12:30.728Z,31.92
2022-12-11T17:14:57.448Z,35.50
2022-12-11T17:17:24.232Z,33.50
2022-12-11T17:19:51.977Z,32.15
2022-12-11T17:22:19.017Z,28.17
2022-12-11T17:24:45.602Z,32.08
2022-12-11T17:27:12.412Z,33.20
2022-12-11T17:29:39.239Z,33.00
2022-12-11T17:32:06.074Z,35.45
2022-12-11T17:34:37.905Z,33.80
2022-12-11T17:37:06.253Z,25.20
2022-12-11T17:39:33.105Z,29.88
2022-12-11T17:41:59.889Z,30.25
2022-12-11T17:44:26.892Z,35.22
2022-12-11T17:46:53.509Z,31.25
2022-12-11T17:49:20.253Z,32.60
2022-12-11T17:51:48.050Z,35.13
2022-12-11T17:54:14.575Z,39.42
2022-12-11T17:56:41.203Z,33.05
2022-12-11T17:59:07.898Z,35.95
2022-12-11T18:01:34.782Z,32.83
2022-12-11T18:04:01.939Z,36.60
2022-12-11T18:06:29.652Z,36.38
2022-12-11T18:08:57.009Z,33.35
2022-12-11T18:11:23.967Z,33.28
2022-12-11T18:13:53.038Z,30.90
2022-12-11T18:16:24.604Z,32.17
2022-12-11T18:21:30.917Z,29.80
2022-12-11T18:23:58.316Z,33.53
2022-12-11T18:26:25.247Z,34.97
2022-12-11T18:28:53.355Z,29.38
2022-12-11T18:31:21.991Z,42.42
2022-12-11T18:33:48.681Z,34.47
2022-12-11T18:36:18.004Z,33.25
2022-12-11T18:38:44.775Z,30.85
2022-12-11T18:41:13.292Z,36.67
2022-12-11T18:43:40.729Z,34.15
2022-12-11T18:46:12.762Z,36.90
2022-12-11T18:48:39.507Z,32.08
2022-12-11T18:51:08.575Z,35.50
2022-12-11T18:53:35.837Z,31.33
2022-12-11T18:56:07.239Z,40.40
2022-12-11T18:58:33.924Z,35.22
2022-12-11T19:01:06.775Z,36.90
2022-12-11T19:03:33.321Z,39.30
2022-12-11T19:06:17.103Z,36.47
2022-12-11T19:08:43.786Z,33.80
2022-12-11T19:11:14.801Z,38.47
2022-12-11T19:13:41.558Z,35.72
2022-12-11T19:16:08.163Z,34.35
2022-12-11T19:18:34.781Z,38.85
2022-12-11T19:21:08.502Z,35.85
2022-12-11T19:23:35.966Z,35.40
2022-12-11T19:26:02.898Z,34.38
2022-12-11T19:28:29.842Z,36.17
2022-12-11T19:30:56.495Z,41.33
2022-12-11T19:33:23.128Z,34.95
2022-12-11T19:35:49.613Z,41.88
2022-12-11T19:38:16.192Z,43.85
2022-12-11T19:40:44.322Z,38.17
2022-12-11T19:43:11.406Z,44.72
2022-12-11T19:45:38.325Z,36.13
2022-12-11T19:48:05.862Z,41.90
2022-12-11T19:50:35.529Z,43.17
2022-12-11T19:53:02.068Z,37.33
2022-12-11T19:55:29.117Z,44.47
2022-12-11T19:57:55.812Z,43.30
2022-12-11T20:00:22.392Z,35.08
2022-12-11T20:02:49.221Z,39.92
2022-12-11T20:05:16.065Z,40.38
2022-12-11T20:07:44.562Z,38.03
2022-12-11T20:10:11.455Z,41.88
2022-12-11T20:12:37.966Z,37.30
2022-12-11T20:15:06.163Z,40.63
2022-12-11T20:17:33.585Z,35.47
2022-12-11T20:20:00.250Z,42.38
2022-12-11T20:22:26.841Z,40.92
2022-12-11T20:24:53.589Z,39.55
2022-12-11T20:27:20.079Z,38.80
2022-12-11T20:29:46.741Z,37.15
2022-12-11T20:32:13.561Z,36.72
2022-12-11T20:34:40.296Z,42.13
2022-12-11T20:37:07.791Z,37.25
2022-12-11T20:39:34.501Z,38.72
2022-12-11T20:42:04.716Z,32.70
2022-12-11T20:44:32.039Z,36.13
2022-12-11T20:46:58.757Z,31.25
2022-12-11T20:49:25.444Z,36.47
2022-12-11T20:51:52.110Z,36.30
2022-12-11T20:54:18.731Z,35.90
2022-12-11T20:56:45.241Z,42.25
2022-12-11T20:59:11.983Z,39.55
2022-12-11T21:01:40.334Z,37.25
2022-12-11T21:04:07.072Z,34.60
2022-12-11T21:06:35.753Z,37.08
2022-12-11T21:09:09.443Z,32.25
2022-12-11T21:11:36.083Z,37.92
2022-12-11T21:14:02.732Z,34.60
2022-12-11T21:16:29.694Z,38.30
2022-12-11T21:18:57.387Z,37.60
2022-12-11T21:21:24.750Z,37.33
2022-12-11T21:23:51.769Z,40.75
2022-12-11T21:26:18.606Z,34.33
2022-12-11T21:28:45.112Z,39.50
2022-12-11T21:31:14.336Z,38.88
2022-12-11T21:33:40.972Z,37.60
2022-12-11T21:36:11.007Z,37.30
2022-12-11T21:38:38.193Z,37.92
2022-12-11T21:41:09.970Z,39.03
2022-12-11T21:43:40.059Z,34.92
2022-12-11T21:46:16.972Z,39.05
2022-12-11T21:48:43.981Z,36.17
2022-12-11T21:51:16.565Z,38.33
2022-12-11T21:53:43.948Z,39.25
2022-12-11T21:56:13.818Z,36.92
2022-12-11T21:58:42.240Z,41.33
2022-12-11T22:01:16.144Z,37.72
2022-12-11T22:03:42.744Z,37.72
2022-12-11T22:06:09.505Z,39.17
2022-12-11T22:08:36.460Z,36.85
2022-12-11T22:11:03.096Z,41.60
2022-12-11T22:13:29.675Z,41.10
2022-12-11T22:15:56.310Z,38.58
2022-12-11T22:18:27.004Z,42.17
2022-12-11T22:20:54.678Z,40.22
2022-12-11T22:23:21.847Z,41.30
2022-12-11T22:25:48.816Z,38.78
2022-12-11T22:28:15.412Z,38.75
2022-12-11T22:30:43.229Z,44.92
2022-12-11T22:33:10.133Z,37.67
2022-12-11T22:35:36.772Z,39.80
2022-12-11T22:38:03.624Z,41.05
2022-12-11T22:40:30.800Z,36.83
2022-12-11T22:42:57.306Z,37.78
2022-12-11T22:45:23.972Z,42.72
2022-12-11T22:47:50.578Z,41.05
2022-12-11T22:50:17.588Z,40.55
2022-12-11T22:52:46.965Z,37.45
2022-12-11T22:55:14.874Z,39.47
2022-12-11T22:57:41.550Z,38.50
2022-12-11T23:00:12.516Z,36.00
2022-12-11T23:02:39.212Z,41.75
2022-12-11T23:05:06.195Z,40.45
2022-12-11T23:07:34.182Z,40.10
2022-12-11T23:10:01.047Z,37.95
2022-12-11T23:12:27.623Z,43.47
2022-12-11T23:14:54.465Z,38.95
2022-12-11T23:17:20.963Z,43.58
2022-12-11T23:19:47.525Z,40.53
2022-12-11T23:22:14.199Z,40.05
2022-12-11T23:24:40.883Z,45.80
2022-12-11T23:27:07.695Z,39.88
2022-12-11T23:29:34.586Z,45.17
2022-12-11T23:32:01.100Z,41.92
2022-12-11T23:34:28.146Z,44.35
2022-12-11T23:36:54.792Z,44.45
2022-12-11T23:39:21.323Z,49.88
2022-12-11T23:41:47.822Z,47.38
2022-12-11T23:44:14.457Z,48.65
2022-12-11T23:46:42.631Z,44.88
2022-12-11T23:49:09.148Z,35.03
2022-12-11T23:51:35.957Z,44.60
2022-12-11T23:54:03.063Z,38.83
2022-12-11T23:56:30.087Z,44.25
2022-12-11T23:58:57.881Z,39.97
